createdAt,value
2022-08-01T00:00:50.281Z,2.60
2022-08-01T00:03:38.333Z,2.90
2022-08-01T00:06:26.155Z,2.50
2022-08-01T00:09:23.894Z,2.70
2022-08-01T00:12:14.850Z,2.50
2022-08-01T00:15:04.970Z,2.80
2022-08-01T00:17:53.061Z,2.30
2022-08-01T00:20:41.108Z,2.20
2022-08-01T00:23:29.381Z,2.70
2022-08-01T00:26:17.413Z,2.20
2022-08-01T00:29:05.224Z,2.50
2022-08-01T00:31:59.805Z,2.60
2022-08-01T00:34:47.908Z,2.50
2022-08-01T00:37:37.542Z,2.30
2022-08-01T00:40:25.338Z,2.10
2022-08-01T00:43:13.418Z,2.40
2022-08-01T00:46:01.348Z,2.40
2022-08-01T00:48:49.834Z,2.50
2022-08-01T00:51:37.846Z,2.50
2022-08-01T00:54:27.842Z,2.70
2022-08-01T00:57:16.093Z,2.70
2022-08-01T01:00:16.817Z,2.90
2022-08-01T01:03:06.095Z,2.40
2022-08-01T01:06:09.036Z,2.70
2022-08-01T01:09:11.856Z,2.50
2022-08-01T01:12:20.922Z,2.40
2022-08-01T01:15:45.866Z,2.40
2022-08-01T01:18:53.098Z,2.60
2022-08-01T01:21:44.103Z,2.60
2022-08-01T01:24:56.833Z,2.50
2022-08-01T01:28:10.364Z,2.70
2022-08-01T01:31:00.630Z,2.30
2022-08-01T01:33:51.666Z,2.60
2022-08-01T01:36:41.163Z,2.50
2022-08-01T01:39:31.266Z,2.80
2022-08-01T01:42:25.773Z,3.00
2022-08-01T01:45:15.300Z,2.50
2022-08-01T01:48:04.889Z,2.20
2022-08-01T01:50:53.802Z,2.50
2022-08-01T01:53:42.698Z,3.00
2022-08-01T01:56:32.262Z,2.60
2022-08-01T01:59:25.877Z,2.30
2022-08-01T02:02:17.474Z,2.30
2022-08-01T02:05:09.661Z,2.60
2022-08-01T02:07:59.440Z,2.50
2022-08-01T02:11:07.946Z,2.50
2022-08-01T02:14:04.869Z,2.70
2022-08-01T02:16:54.573Z,2.90
2022-08-01T02:19:42.975Z,2.80
2022-08-01T02:22:42.205Z,2.60
2022-08-01T02:26:11.076Z,3.40
2022-08-01T02:29:00.717Z,3.00
2022-08-01T02:31:49.801Z,2.70
2022-08-01T02:34:37.643Z,3.10
2022-08-01T02:37:28.275Z,3.10
2022-08-01T02:40:18.768Z,3.30
2022-08-01T02:43:08.362Z,2.80
2022-08-01T02:46:02.560Z,3.60
2022-08-01T02:48:54.659Z,3.50
2022-08-01T02:51:44.973Z,3.30
2022-08-01T02:54:35.399Z,3.30
2022-08-01T02:57:32.812Z,3.50
2022-08-01T03:00:34.445Z,3.60
2022-08-01T03:03:25.795Z,3.80
2022-08-01T03:06:15.700Z,3.40
2022-08-01T03:09:05.599Z,3.10
2022-08-01T03:11:59.348Z,3.10
2022-08-01T03:14:50.667Z,3.40
2022-08-01T03:17:43.063Z,3.20
2022-08-01T03:20:33.926Z,3.20
2022-08-01T03:23:37.761Z,3.00
2022-08-01T03:26:29.846Z,2.70
2022-08-01T03:29:23.842Z,2.90
2022-08-01T03:32:14.460Z,3.00
2022-08-01T03:35:02.435Z,3.00
2022-08-01T03:38:15.240Z,2.60
2022-08-01T03:41:12.945Z,2.60
2022-08-01T03:44:16.860Z,2.70
2022-08-01T03:47:10.040Z,2.30
2022-08-01T03:50:00.332Z,2.40
2022-08-01T03:52:51.454Z,2.60
2022-08-01T03:55:42.290Z,2.30
2022-08-01T03:58:32.278Z,2.40
2022-08-01T04:01:20.855Z,2.40
2022-08-01T04:04:08.818Z,2.50
2022-08-01T04:06:56.911Z,2.00
2022-08-01T04:09:44.625Z,2.10
2022-08-01T04:12:33.888Z,2.20
2022-08-01T04:15:22.334Z,2.10
2022-08-01T04:18:10.282Z,2.20
2022-08-01T04:20:58.051Z,2.30
2022-08-01T04:23:51.709Z,2.20
2022-08-01T04:26:44.598Z,1.70
2022-08-01T04:29:33.975Z,2.00
2022-08-01T04:32:23.115Z,1.90
2022-08-01T04:35:23.109Z,2.10
2022-08-01T04:38:28.530Z,2.00
2022-08-01T04:41:17.895Z,2.00
2022-08-01T04:44:07.944Z,2.20
2022-08-01T04:46:57.612Z,2.00
2022-08-01T04:49:49.291Z,2.00
2022-08-01T04:52:39.203Z,2.00
2022-08-01T04:55:28.897Z,2.00
2022-08-01T04:58:18.808Z,1.90
2022-08-01T05:01:07.466Z,1.90
2022-08-01T05:03:55.303Z,1.80
2022-08-01T05:06:43.248Z,1.80
2022-08-01T05:09:32.012Z,1.80
2022-08-01T05:12:20.115Z,1.80
2022-08-01T05:15:14.733Z,2.40
2022-08-01T05:18:03.391Z,1.70
2022-08-01T05:20:51.110Z,1.60
2022-08-01T05:23:43.140Z,1.80
2022-08-01T05:26:31.947Z,1.60
2022-08-01T05:29:19.925Z,1.70
2022-08-01T05:32:08.257Z,1.80
2022-08-01T05:34:56.644Z,1.70
2022-08-01T05:37:44.593Z,1.70
2022-08-01T05:40:32.640Z,1.60
2022-08-01T05:43:25.559Z,1.70
2022-08-01T05:46:16.738Z,1.60
2022-08-01T05:49:06.636Z,1.40
2022-08-01T05:51:54.899Z,1.30
2022-08-01T05:54:42.967Z,1.80
2022-08-01T05:57:30.672Z,4.10
2022-08-01T06:00:19.235Z,1.30
2022-08-01T06:03:07.422Z,1.90
2022-08-01T06:05:55.538Z,1.20
2022-08-01T06:08:43.467Z,1.10
2022-08-01T06:11:31.595Z,1.40
2022-08-01T06:14:20.142Z,1.40
2022-08-01T06:17:08.286Z,1.20
2022-08-01T06:19:57.136Z,1.00
2022-08-01T06:22:45.281Z,1.10
2022-08-01T06:25:40.807Z,0.90
2022-08-01T06:28:29.205Z,1.10
2022-08-01T06:31:17.820Z,0.90
2022-08-01T06:34:05.712Z,1.10
2022-08-01T06:36:53.652Z,0.90
2022-08-01T06:39:44.140Z,1.00
2022-08-01T06:42:38.578Z,1.00
2022-08-01T06:45:28.148Z,0.70
2022-08-01T06:48:15.907Z,0.90
2022-08-01T06:51:09.385Z,1.40
2022-08-01T06:53:57.437Z,0.80
2022-08-01T06:56:45.550Z,1.10
2022-08-01T06:59:33.984Z,0.70
2022-08-01T07:02:22.420Z,1.00
2022-08-01T07:05:10.771Z,0.80
2022-08-01T07:07:59.336Z,0.90
2022-08-01T07:10:46.974Z,0.80
2022-08-01T07:13:36.683Z,0.80
2022-08-01T07:16:31.559Z,0.80
2022-08-01T07:19:19.841Z,0.80
2022-08-01T07:22:08.369Z,1.00
2022-08-01T07:24:58.699Z,0.80
2022-08-01T07:27:47.343Z,1.00
2022-08-01T07:30:36.504Z,0.90
2022-08-01T07:33:24.069Z,0.90
2022-08-01T07:36:11.998Z,0.90
2022-08-01T07:39:00.227Z,1.50
2022-08-01T07:42:07.078Z,0.80
2022-08-01T07:44:56.142Z,1.40
2022-08-01T07:47:44.770Z,1.00
2022-08-01T07:50:33.675Z,0.90
2022-08-01T07:53:22.561Z,1.00
2022-08-01T07:56:11.020Z,0.80
2022-08-01T07:58:58.813Z,1.10
2022-08-01T08:01:47.035Z,1.20
2022-08-01T08:04:36.523Z,0.90
2022-08-01T08:07:24.432Z,1.00
2022-08-01T08:10:12.803Z,1.00
2022-08-01T08:13:02.651Z,0.90
2022-08-01T08:15:50.622Z,0.90
2022-08-01T08:18:39.451Z,1.00
2022-08-01T08:21:27.524Z,5.40
2022-08-01T08:24:25.851Z,6.80
2022-08-01T08:27:16.670Z,2.10
2022-08-01T08:30:12.185Z,2.40
2022-08-01T08:33:00.005Z,0.90
2022-08-01T08:35:53.724Z,0.80
2022-08-01T08:38:41.930Z,0.70
2022-08-01T08:41:37.986Z,1.00
2022-08-01T08:44:26.734Z,1.00
2022-08-01T08:47:20.220Z,0.80
2022-08-01T08:50:09.544Z,0.70
2022-08-01T08:53:02.462Z,0.90
2022-08-01T08:55:56.749Z,1.20
2022-08-01T08:58:46.632Z,1.50
2022-08-01T09:01:36.281Z,1.00
2022-08-01T09:04:26.056Z,0.90
2022-08-01T09:07:15.491Z,0.70
2022-08-01T09:10:05.788Z,0.90
2022-08-01T09:13:15.544Z,1.00
2022-08-01T09:16:05.776Z,0.90
2022-08-01T09:18:54.060Z,0.80
2022-08-01T09:21:59.904Z,0.80
2022-08-01T09:25:11.012Z,0.90
2022-08-01T09:28:07.559Z,1.00
2022-08-01T09:30:58.341Z,1.10
2022-08-01T09:33:56.700Z,2.80
2022-08-01T09:36:59.557Z,1.80
2022-08-01T09:39:56.288Z,0.90
2022-08-01T09:42:52.893Z,0.90
2022-08-01T09:45:41.870Z,1.20
2022-08-01T09:48:33.893Z,1.40
2022-08-01T09:51:59.460Z,1.10
2022-08-01T09:54:53.020Z,0.80
2022-08-01T09:57:40.940Z,1.00
2022-08-01T10:00:44.930Z,0.90
2022-08-01T10:03:34.465Z,1.10
2022-08-01T10:06:24.904Z,0.90
2022-08-01T10:09:15.432Z,1.00
2022-08-01T10:12:05.476Z,1.20
2022-08-01T10:14:56.416Z,1.00
2022-08-01T10:17:57.430Z,1.30
2022-08-01T10:20:47.058Z,1.10
2022-08-01T10:23:40.679Z,1.00
2022-08-01T10:26:33.348Z,0.80
2022-08-01T10:29:45.114Z,0.90
2022-08-01T10:32:32.273Z,0.90
2022-08-01T10:35:46.051Z,0.90
2022-08-01T10:38:30.658Z,1.00
2022-08-01T10:41:20.430Z,1.00
2022-08-01T10:44:10.955Z,1.00
2022-08-01T10:47:13.469Z,1.00
2022-08-01T10:50:48.494Z,1.50
2022-08-01T10:53:42.636Z,1.20
2022-08-01T10:56:48.691Z,1.00
2022-08-01T11:00:01.574Z,1.10
2022-08-01T11:03:04.907Z,1.00
2022-08-01T11:05:53.250Z,1.60
2022-08-01T11:08:43.844Z,1.20
2022-08-01T11:12:22.927Z,1.20
2022-08-01T11:15:11.830Z,1.40
2022-08-01T11:18:05.423Z,1.20
2022-08-01T11:21:57.199Z,1.20
2022-08-01T11:24:13.105Z,1.20
2022-08-01T11:27:23.943Z,1.50
2022-08-01T11:30:13.289Z,1.50
2022-08-01T11:33:11.549Z,2.60
2022-08-01T11:36:16.872Z,2.20
2022-08-01T11:39:13.509Z,1.70
2022-08-01T11:42:20.656Z,1.20
2022-08-01T11:45:16.741Z,1.20
2022-08-01T11:48:19.683Z,1.30
2022-08-01T11:51:22.711Z,1.30
2022-08-01T11:54:14.043Z,1.20
2022-08-01T11:57:06.796Z,1.20
2022-08-01T12:00:03.401Z,1.20
2022-08-01T12:03:07.976Z,1.30
2022-08-01T12:05:58.208Z,1.00
2022-08-01T12:08:46.489Z,1.40
2022-08-01T12:11:37.229Z,1.20
2022-08-01T12:14:25.801Z,1.40
2022-08-01T12:17:14.319Z,1.30
2022-08-01T12:20:10.561Z,1.80
2022-08-01T12:23:09.126Z,1.50
2022-08-01T12:25:57.575Z,1.40
2022-08-01T12:28:45.742Z,1.00
2022-08-01T12:31:37.885Z,1.20
2022-08-01T12:34:30.405Z,1.40
2022-08-01T12:37:19.685Z,1.20
2022-08-01T12:40:17.549Z,1.40
2022-08-01T12:43:09.274Z,1.40
2022-08-01T12:46:04.578Z,1.20
2022-08-01T12:48:52.686Z,1.20
2022-08-01T12:51:41.447Z,1.30
2022-08-01T12:54:29.680Z,1.20
2022-08-01T12:57:25.373Z,1.40
2022-08-01T13:00:32.080Z,1.20
2022-08-01T13:03:22.132Z,1.30
2022-08-01T13:06:17.528Z,1.40
2022-08-01T13:09:12.592Z,1.20
2022-08-01T13:12:10.052Z,1.10
2022-08-01T13:14:59.018Z,1.20
2022-08-01T13:17:47.231Z,1.30
2022-08-01T13:20:36.482Z,1.30
2022-08-01T13:24:01.660Z,1.30
2022-08-01T13:26:50.474Z,1.20
2022-08-01T13:29:43.930Z,1.30
2022-08-01T13:32:32.400Z,1.20
2022-08-01T13:35:21.695Z,1.50
2022-08-01T13:38:09.576Z,1.30
2022-08-01T13:41:00.892Z,1.20
2022-08-01T13:43:58.199Z,1.10
2022-08-01T13:46:49.874Z,1.40
2022-08-01T13:49:41.022Z,1.20
2022-08-01T13:52:29.515Z,1.60
2022-08-01T13:55:17.946Z,1.50
2022-08-01T13:58:07.264Z,1.40
2022-08-01T14:00:55.576Z,1.50
2022-08-01T14:03:43.711Z,1.30
2022-08-01T14:06:33.892Z,1.40
2022-08-01T14:09:24.790Z,1.60
2022-08-01T14:12:13.006Z,1.50
2022-08-01T14:15:01.301Z,1.50
2022-08-01T14:17:49.323Z,1.50
2022-08-01T14:20:40.658Z,1.20
2022-08-01T14:23:29.249Z,1.30
2022-08-01T14:26:17.769Z,1.10
2022-08-01T14:29:06.291Z,1.60
2022-08-01T14:31:54.376Z,1.30
2022-08-01T14:34:42.366Z,1.30
2022-08-01T14:37:34.699Z,1.40
2022-08-01T14:40:25.669Z,1.50
2022-08-01T14:43:24.978Z,1.40
2022-08-01T14:46:15.836Z,1.20
2022-08-01T14:49:03.917Z,1.20
2022-08-01T14:51:51.960Z,1.40
2022-08-01T14:54:39.867Z,1.60
2022-08-01T14:57:29.285Z,1.60
2022-08-01T15:00:18.490Z,1.40
2022-08-01T15:03:06.512Z,2.00
2022-08-01T15:05:55.472Z,1.50
2022-08-01T15:08:44.397Z,1.30
2022-08-01T15:11:34.415Z,1.40
2022-08-01T15:14:40.841Z,1.50
2022-08-01T15:17:32.076Z,1.80
2022-08-01T15:20:20.281Z,1.80
2022-08-01T15:23:08.025Z,1.50
2022-08-01T15:25:56.284Z,1.30
2022-08-01T15:28:45.816Z,1.20
2022-08-01T15:31:33.942Z,1.20
2022-08-01T15:34:22.893Z,1.40
2022-08-01T15:37:11.976Z,1.10
2022-08-01T15:39:59.916Z,1.10
2022-08-01T15:42:47.881Z,1.30
2022-08-01T15:45:51.312Z,1.50
2022-08-01T15:48:40.243Z,1.50
2022-08-01T15:51:28.327Z,1.20
2022-08-01T15:54:16.483Z,1.40
2022-08-01T15:57:04.521Z,1.30
2022-08-01T15:59:52.731Z,1.20
2022-08-01T16:02:40.466Z,1.10
2022-08-01T16:05:28.445Z,1.00
2022-08-01T16:08:17.300Z,1.40
2022-08-01T16:11:05.454Z,1.40
2022-08-01T16:13:57.007Z,1.20
2022-08-01T16:16:45.736Z,1.30
2022-08-01T16:19:41.012Z,1.20
2022-08-01T16:22:30.413Z,1.50
2022-08-01T16:25:19.209Z,1.40
2022-08-01T16:28:07.519Z,1.30
2022-08-01T16:31:15.247Z,1.30
2022-08-01T16:34:05.231Z,1.90
2022-08-01T16:36:55.557Z,1.40
2022-08-01T16:39:44.987Z,1.30
2022-08-01T16:42:34.677Z,1.50
2022-08-01T16:45:23.899Z,1.20
2022-08-01T16:48:19.066Z,1.40
2022-08-01T16:51:07.061Z,1.40
2022-08-01T16:53:55.402Z,1.40
2022-08-01T16:56:43.420Z,1.30
2022-08-01T16:59:32.164Z,1.60
2022-08-01T17:02:21.977Z,1.40
2022-08-01T17:05:12.657Z,1.30
2022-08-01T17:08:01.767Z,1.50
2022-08-01T17:10:50.599Z,1.80
2022-08-01T17:13:39.923Z,1.50
2022-08-01T17:16:27.808Z,1.30
2022-08-01T17:19:16.095Z,1.40
2022-08-01T17:22:04.553Z,6.00
2022-08-01T17:24:53.024Z,1.50
2022-08-01T17:27:42.373Z,1.50
2022-08-01T17:30:30.547Z,1.50
2022-08-01T17:33:18.855Z,1.30
2022-08-01T17:36:09.809Z,1.40
2022-08-01T17:38:59.961Z,1.30
2022-08-01T17:41:53.410Z,1.30
2022-08-01T17:44:48.712Z,1.20
2022-08-01T17:47:50.944Z,1.30
2022-08-01T17:50:49.569Z,1.60
2022-08-01T17:53:55.601Z,1.40
2022-08-01T17:56:46.217Z,1.50
2022-08-01T17:59:39.339Z,1.50
2022-08-01T18:02:28.550Z,1.30
2022-08-01T18:05:21.195Z,1.40
2022-08-01T18:08:27.726Z,1.30
2022-08-01T18:11:17.502Z,1.50
2022-08-01T18:14:13.127Z,1.60
2022-08-01T18:17:05.510Z,1.50
2022-08-01T18:19:58.944Z,1.50
2022-08-01T18:22:50.162Z,1.40
2022-08-01T18:25:40.728Z,1.80
2022-08-01T18:28:35.347Z,1.60
2022-08-01T18:31:27.909Z,1.40
2022-08-01T18:34:38.741Z,1.50
2022-08-01T18:37:33.295Z,1.80
2022-08-01T18:40:26.532Z,1.60
2022-08-01T18:43:14.821Z,1.60
2022-08-01T18:46:05.968Z,1.70
2022-08-01T18:48:54.367Z,1.90
2022-08-01T18:51:45.102Z,1.70
2022-08-01T18:54:32.794Z,2.00
2022-08-01T18:57:23.619Z,2.30
2022-08-01T19:00:14.343Z,1.80
2022-08-01T19:03:03.392Z,1.90
2022-08-01T19:05:51.454Z,1.80
2022-08-01T19:08:40.770Z,1.90
2022-08-01T19:11:28.739Z,2.10
2022-08-01T19:14:17.855Z,2.10
2022-08-01T19:17:08.176Z,2.10
2022-08-01T19:19:56.442Z,2.00
2022-08-01T19:22:44.494Z,2.40
2022-08-01T19:25:55.580Z,2.20
2022-08-01T19:28:52.849Z,2.80
2022-08-01T19:31:45.641Z,4.10
2022-08-01T19:34:48.801Z,4.00
2022-08-01T19:37:36.730Z,2.60
2022-08-01T19:40:27.789Z,2.60
2022-08-01T19:43:17.955Z,2.80
2022-08-01T19:46:06.139Z,2.70
2022-08-01T19:49:05.331Z,2.50
2022-08-01T19:52:03.100Z,2.80
2022-08-01T19:54:50.987Z,3.50
2022-08-01T19:57:45.423Z,3.10
2022-08-01T20:00:40.738Z,4.00
2022-08-01T20:03:32.036Z,4.20
2022-08-01T20:06:20.135Z,3.50
2022-08-01T20:09:13.983Z,3.90
2022-08-01T20:12:02.124Z,3.20
2022-08-01T20:14:54.035Z,3.40
2022-08-01T20:17:42.312Z,3.20
2022-08-01T20:20:32.496Z,3.90
2022-08-01T20:23:27.381Z,4.00
2022-08-01T20:26:19.406Z,5.00
2022-08-01T20:29:08.058Z,5.10
2022-08-01T20:31:58.110Z,6.50
2022-08-01T20:34:46.406Z,7.40
2022-08-01T20:38:03.973Z,5.50
2022-08-01T20:40:51.139Z,6.00
2022-08-01T20:43:39.486Z,6.10
2022-08-01T20:46:29.168Z,5.30
2022-08-01T20:49:17.835Z,4.60
2022-08-01T20:52:11.762Z,4.50
2022-08-01T20:55:00.600Z,4.90
2022-08-01T20:57:52.752Z,6.40
2022-08-01T21:00:52.645Z,5.90
2022-08-01T21:03:59.450Z,5.70
2022-08-01T21:07:19.217Z,5.30
2022-08-01T21:10:18.828Z,5.50
2022-08-01T21:13:28.526Z,4.40
2022-08-01T21:16:25.327Z,4.30
2022-08-01T21:19:20.535Z,4.00
2022-08-01T21:22:19.640Z,4.40
2022-08-01T21:25:23.085Z,10.20
2022-08-01T21:28:17.432Z,4.60
2022-08-01T21:31:06.769Z,3.40
2022-08-01T21:34:02.987Z,3.70
2022-08-01T21:36:53.289Z,3.60
2022-08-01T21:39:44.851Z,3.60
2022-08-01T21:42:33.905Z,3.50
2022-08-01T21:45:27.517Z,3.70
2022-08-01T21:48:16.952Z,3.30
2022-08-01T21:51:39.221Z,3.40
2022-08-01T21:54:51.139Z,3.40
2022-08-01T21:57:57.759Z,3.30
2022-08-01T22:00:58.751Z,3.40
2022-08-01T22:03:52.457Z,3.70
2022-08-01T22:06:48.735Z,4.00
2022-08-01T22:09:39.850Z,3.50
2022-08-01T22:12:29.698Z,4.10
2022-08-01T22:15:20.666Z,4.20
2022-08-01T22:18:10.270Z,3.70
2022-08-01T22:20:58.598Z,3.80
2022-08-01T22:23:47.991Z,4.00
2022-08-01T22:26:38.547Z,3.60
2022-08-01T22:29:29.399Z,3.50
2022-08-01T22:32:17.595Z,3.40
2022-08-01T22:35:12.829Z,3.10
2022-08-01T22:38:01.569Z,3.30
2022-08-01T22:41:01.808Z,3.70
2022-08-01T22:44:04.160Z,3.70
2022-08-01T22:47:10.509Z,3.40
2022-08-01T22:50:06.900Z,3.30
2022-08-01T22:53:12.336Z,3.90
2022-08-01T22:56:05.531Z,3.80
2022-08-01T22:58:55.096Z,3.00
2022-08-01T23:01:48.704Z,3.20
2022-08-01T23:04:48.161Z,3.20
2022-08-01T23:07:42.789Z,2.70
2022-08-01T23:10:30.881Z,3.00
2022-08-01T23:13:20.790Z,2.80
2022-08-01T23:16:10.577Z,3.10
2022-08-01T23:19:01.066Z,3.00
2022-08-01T23:21:50.508Z,3.00
2022-08-01T23:24:40.118Z,2.90
2022-08-01T23:27:55.878Z,3.10
2022-08-01T23:30:54.661Z,3.00
2022-08-01T23:33:42.564Z,2.80
2022-08-01T23:36:30.736Z,2.80
2022-08-01T23:39:18.795Z,2.80
2022-08-01T23:42:10.728Z,4.30
2022-08-01T23:44:58.753Z,2.80
2022-08-01T23:47:47.826Z,3.40
2022-08-01T23:50:35.938Z,3.10
2022-08-01T23:53:24.043Z,2.90
2022-08-01T23:56:25.174Z,3.00
2022-08-01T23:59:13.818Z,3.30
